sensor_id;sensor_type;location;lat;lon;timestamp;pressure;altitude;pressure_sealevel;temperature;humidity
44457;BME280;30159;49.316;8.558;2023-03-19T00:01:24;100062.25;;;11.93;78.40
44457;BME280;30159;49.316;8.558;2023-03-19T00:03:51;100082.50;;;12.10;79.83
44457;BME280;30159;49.316;8.558;2023-03-19T00:06:20;100081.94;;;12.13;80.54
44457;BME280;30159;49.316;8.558;2023-03-19T00:08:47;100098.44;;;12.11;79.85
44457;BME280;30159;49.316;8.558;2023-03-19T00:11:15;100107.34;;;12.12;80.75
44457;BME280;30159;49.316;8.558;2023-03-19T00:13:41;100115.97;;;12.14;82.56
44457;BME280;30159;49.316;8.558;2023-03-19T00:16:08;100140.19;;;12.05;84.52
44457;BME280;30159;49.316;8.558;2023-03-19T00:18:34;100127.56;;;12.00;86.32
44457;BME280;30159;49.316;8.558;2023-03-19T00:21:01;100128.88;;;12.03;87.54
44457;BME280;30159;49.316;8.558;2023-03-19T00:23:28;100121.84;;;12.02;88.64
44457;BME280;30159;49.316;8.558;2023-03-19T00:25:55;100122.97;;;12.01;89.75
44457;BME280;30159;49.316;8.558;2023-03-19T00:28:23;100110.41;;;11.91;90.26
44457;BME280;30159;49.316;8.558;2023-03-19T00:30:50;100107.81;;;11.81;96.30
44457;BME280;30159;49.316;8.558;2023-03-19T00:33:17;100107.41;;;11.74;98.04
44457;BME280;30159;49.316;8.558;2023-03-19T00:35:44;100097.25;;;11.47;100.00
44457;BME280;30159;49.316;8.558;2023-03-19T00:38:11;100097.66;;;11.40;100.00
44457;BME280;30159;49.316;8.558;2023-03-19T00:40:38;100081.06;;;11.28;100.00
44457;BME280;30159;49.316;8.558;2023-03-19T00:43:07;100090.03;;;11.42;100.00
44457;BME280;30159;49.316;8.558;2023-03-19T00:45:35;100082.44;;;11.44;100.00
44457;BME280;30159;49.316;8.558;2023-03-19T00:48:02;100086.63;;;11.36;98.79
44457;BME280;30159;49.316;8.558;2023-03-19T00:50:28;100092.69;;;11.47;98.38
44457;BME280;30159;49.316;8.558;2023-03-19T00:52:55;100096.47;;;11.46;99.78
44457;BME280;30159;49.316;8.558;2023-03-19T00:55:22;100094.94;;;11.40;100.00
44457;BME280;30159;49.316;8.558;2023-03-19T00:57:50;100096.63;;;11.36;100.00
44457;BME280;30159;49.316;8.558;2023-03-19T01:00:17;100108.88;;;11.28;100.00
44457;BME280;30159;49.316;8.558;2023-03-19T01:02:45;100125.66;;;11.25;100.00
44457;BME280;30159;49.316;8.558;2023-03-19T01:05:12;100136.75;;;11.24;100.00
44457;BME280;30159;49.316;8.558;2023-03-19T01:07:38;100146.16;;;11.26;100.00
44457;BME280;30159;49.316;8.558;2023-03-19T01:10:06;100134.94;;;11.19;100.00
44457;BME280;30159;49.316;8.558;2023-03-19T01:12:32;100128.16;;;11.22;100.00
44457;BME280;30159;49.316;8.558;2023-03-19T01:14:59;100117.56;;;11.25;100.00
44457;BME280;30159;49.316;8.558;2023-03-19T01:17:26;100107.50;;;11.31;100.00
44457;BME280;30159;49.316;8.558;2023-03-19T01:19:54;100092.69;;;11.28;100.00
44457;BME280;30159;49.316;8.558;2023-03-19T01:22:20;99962.88;;;10.49;100.00
44457;BME280;30159;49.316;8.558;2023-03-19T01:24:47;100082.38;;;11.30;100.00
44457;BME280;30159;49.316;8.558;2023-03-19T01:27:13;100105.31;;;11.33;100.00
44457;BME280;30159;49.316;8.558;2023-03-19T01:29:40;100115.09;;;11.29;100.00
44457;BME280;30159;49.316;8.558;2023-03-19T01:32:07;100016.06;;;10.43;100.00
44457;BME280;30159;49.316;8.558;2023-03-19T01:34:34;99973.84;;;10.09;100.00
44457;BME280;30159;49.316;8.558;2023-03-19T01:37:02;100126.44;;;11.07;100.00
44457;BME280;30159;49.316;8.558;2023-03-19T01:39:28;100123.34;;;10.94;100.00
44457;BME280;30159;49.316;8.558;2023-03-19T01:42:00;100126.44;;;11.07;100.00
44457;BME280;30159;49.316;8.558;2023-03-19T01:44:29;99983.91;;;10.23;100.00
44457;BME280;30159;49.316;8.558;2023-03-19T01:46:56;100135.78;;;11.14;100.00
44457;BME280;30159;49.316;8.558;2023-03-19T01:49:25;100129.09;;;11.12;100.00
44457;BME280;30159;49.316;8.558;2023-03-19T01:51:54;100110.03;;;11.03;100.00
44457;BME280;30159;49.316;8.558;2023-03-19T01:54:26;100133.31;;;11.18;100.00
44457;BME280;30159;49.316;8.558;2023-03-19T01:56:57;100138.25;;;11.11;100.00
44457;BME280;30159;49.316;8.558;2023-03-19T01:59:29;100122.63;;;10.89;100.00
44457;BME280;30159;49.316;8.558;2023-03-19T02:02:00;100131.38;;;10.75;100.00
44457;BME280;30159;49.316;8.558;2023-03-19T02:04:30;100146.31;;;10.68;100.00
44457;BME280;30159;49.316;8.558;2023-03-19T02:06:58;100145.78;;;10.66;100.00
44457;BME280;30159;49.316;8.558;2023-03-19T02:09:28;100145.78;;;10.66;100.00
44457;BME280;30159;49.316;8.558;2023-03-19T02:11:56;100145.72;;;10.71;100.00
44457;BME280;30159;49.316;8.558;2023-03-19T02:14:23;100151.13;;;10.71;100.00
44457;BME280;30159;49.316;8.558;2023-03-19T02:16:50;100149.75;;;10.73;100.00
44457;BME280;30159;49.316;8.558;2023-03-19T02:19:21;100034.16;;;9.84;100.00
44457;BME280;30159;49.316;8.558;2023-03-19T02:21:51;100159.41;;;10.80;100.00
44457;BME280;30159;49.316;8.558;2023-03-19T02:24:24;100152.97;;;10.75;100.00
44457;BME280;30159;49.316;8.558;2023-03-19T02:26:54;100146.53;;;10.71;100.00
44457;BME280;30159;49.316;8.558;2023-03-19T02:29:22;100158.81;;;10.83;100.00
44457;BME280;30159;49.316;8.558;2023-03-19T02:31:48;100155.88;;;10.79;100.00
44457;BME280;30159;49.316;8.558;2023-03-19T02:34:34;100150.66;;;10.88;100.00
44457;BME280;30159;49.316;8.558;2023-03-19T02:37:04;100145.59;;;10.86;100.00
44457;BME280;30159;49.316;8.558;2023-03-19T02:39:39;100144.75;;;10.86;100.00
44457;BME280;30159;49.316;8.558;2023-03-19T02:42:10;100145.28;;;10.88;100.00
44457;BME280;30159;49.316;8.558;2023-03-19T02:44:37;100146.06;;;10.88;100.00
44457;BME280;30159;49.316;8.558;2023-03-19T02:47:04;100155.28;;;10.87;100.00
44457;BME280;30159;49.316;8.558;2023-03-19T02:49:30;100161.41;;;10.93;100.00
44457;BME280;30159;49.316;8.558;2023-03-19T02:51:57;100161.19;;;10.89;100.00
44457;BME280;30159;49.316;8.558;2023-03-19T02:54:24;100158.75;;;10.88;100.00
44457;BME280;30159;49.316;8.558;2023-03-19T02:56:50;100148.94;;;10.97;100.00
44457;BME280;30159;49.316;8.558;2023-03-19T02:59:19;100160.19;;;11.04;100.00
44457;BME280;30159;49.316;8.558;2023-03-19T03:01:46;100155.84;;;11.08;100.00
44457;BME280;30159;49.316;8.558;2023-03-19T03:04:12;100161.69;;;11.15;100.00
44457;BME280;30159;49.316;8.558;2023-03-19T03:06:40;100158.41;;;11.18;100.00
44457;BME280;30159;49.316;8.558;2023-03-19T03:09:07;100009.84;;;10.19;100.00
44457;BME280;30159;49.316;8.558;2023-03-19T03:11:34;100160.09;;;11.14;100.00
44457;BME280;30159;49.316;8.558;2023-03-19T03:14:01;100161.69;;;11.15;100.00
44457;BME280;30159;49.316;8.558;2023-03-19T03:16:28;100161.09;;;11.18;100.00
44457;BME280;30159;49.316;8.558;2023-03-19T03:18:55;100158.28;;;11.29;100.00
44457;BME280;30159;49.316;8.558;2023-03-19T03:21:22;100145.41;;;11.21;100.00
44457;BME280;30159;49.316;8.558;2023-03-19T03:23:48;100160.47;;;11.27;100.00
44457;BME280;30159;49.316;8.558;2023-03-19T03:26:15;100160.47;;;11.27;100.00
44457;BME280;30159;49.316;8.558;2023-03-19T03:28:42;100163.75;;;11.24;100.00
44457;BME280;30159;49.316;8.558;2023-03-19T03:31:08;100163.09;;;11.32;100.00
44457;BME280;30159;49.316;8.558;2023-03-19T03:33:37;100162.47;;;11.40;100.00
44457;BME280;30159;49.316;8.558;2023-03-19T03:36:04;100165.44;;;11.38;100.00
44457;BME280;30159;49.316;8.558;2023-03-19T03:38:31;100172.22;;;11.36;100.00
44457;BME280;30159;49.316;8.558;2023-03-19T03:40:58;100175.59;;;11.47;99.56
44457;BME280;30159;49.316;8.558;2023-03-19T03:43:25;100171.66;;;11.39;100.00
44457;BME280;30159;49.316;8.558;2023-03-19T03:45:52;100168.66;;;11.41;99.87
44457;BME280;30159;49.316;8.558;2023-03-19T03:48:19;100173.19;;;11.45;99.97
44457;BME280;30159;49.316;8.558;2023-03-19T03:50:47;100175.91;;;11.45;100.00
44457;BME280;30159;49.316;8.558;2023-03-19T03:53:13;100173.72;;;11.47;100.00
44457;BME280;30159;49.316;8.558;2023-03-19T03:55:41;100181.50;;;11.49;99.63
44457;BME280;30159;49.316;8.558;2023-03-19T03:58:07;100179.66;;;11.44;99.24
44457;BME280;30159;49.316;8.558;2023-03-19T04:00:34;100180.25;;;11.41;98.94
44457;BME280;30159;49.316;8.558;2023-03-19T04:03:01;100180.72;;;11.48;98.83
44457;BME280;30159;49.316;8.558;2023-03-19T04:05:27;100190.28;;;11.59;98.07
44457;BME280;30159;49.316;8.558;2023-03-19T04:07:55;100177.72;;;11.69;96.82
44457;BME280;30159;49.316;8.558;2023-03-19T04:10:22;100181.91;;;11.61;97.38
44457;BME280;30159;49.316;8.558;2023-03-19T04:12:49;100190.34;;;11.54;99.15
44457;BME280;30159;49.316;8.558;2023-03-19T04:15:16;100197.50;;;11.45;99.58
44457;BME280;30159;49.316;8.558;2023-03-19T04:17:43;100197.59;;;11.35;100.00
44457;BME280;30159;49.316;8.558;2023-03-19T04:20:10;100200.97;;;11.27;100.00
44457;BME280;30159;49.316;8.558;2023-03-19T04:22:38;100192.41;;;11.20;100.00
44457;BME280;30159;49.316;8.558;2023-03-19T04:25:07;100196.44;;;11.22;100.00
44457;BME280;30159;49.316;8.558;2023-03-19T04:27:34;100059.94;;;10.20;100.00
44457;BME280;30159;49.316;8.558;2023-03-19T04:30:01;100204.88;;;11.15;100.00
44457;BME280;30159;49.316;8.558;2023-03-19T04:32:27;100198.97;;;11.13;100.00
44457;BME280;30159;49.316;8.558;2023-03-19T04:34:54;100207.00;;;11.18;100.00
44457;BME280;30159;49.316;8.558;2023-03-19T04:37:22;100205.06;;;11.24;100.00
44457;BME280;30159;49.316;8.558;2023-03-19T04:39:49;100168.81;;;11.06;100.00
44457;BME280;30159;49.316;8.558;2023-03-19T04:42:17;100192.94;;;11.22;100.00
44457;BME280;30159;49.316;8.558;2023-03-19T04:44:43;100208.41;;;11.35;100.00
44457;BME280;30159;49.316;8.558;2023-03-19T04:47:10;100214.13;;;11.33;100.00
44457;BME280;30159;49.316;8.558;2023-03-19T04:49:37;100201.94;;;11.36;100.00
44457;BME280;30159;49.316;8.558;2023-03-19T04:52:04;100198.78;;;11.29;100.00
44457;BME280;30159;49.316;8.558;2023-03-19T04:54:31;100217.28;;;11.41;100.00
44457;BME280;30159;49.316;8.558;2023-03-19T04:56:58;100194.91;;;11.35;100.00
44457;BME280;30159;49.316;8.558;2023-03-19T04:59:26;100218.78;;;11.47;100.00
44457;BME280;30159;49.316;8.558;2023-03-19T05:01:53;100215.75;;;11.53;100.00
44457;BME280;30159;49.316;8.558;2023-03-19T05:04:19;100209.34;;;11.49;100.00
44457;BME280;30159;49.316;8.558;2023-03-19T05:06:47;100214.44;;;11.51;100.00
44457;BME280;30159;49.316;8.558;2023-03-19T05:09:14;100214.94;;;11.53;100.00
44457;BME280;30159;49.316;8.558;2023-03-19T05:11:41;100195.31;;;11.47;99.24
44457;BME280;30159;49.316;8.558;2023-03-19T05:14:07;100212.19;;;11.58;100.00
44457;BME280;30159;49.316;8.558;2023-03-19T05:16:35;100200.06;;;11.55;99.73
44457;BME280;30159;49.316;8.558;2023-03-19T05:19:03;100204.94;;;11.53;100.00
44457;BME280;30159;49.316;8.558;2023-03-19T05:21:29;100216.34;;;11.50;100.00
44457;BME280;30159;49.316;8.558;2023-03-19T05:23:56;100216.34;;;11.50;100.00
44457;BME280;30159;49.316;8.558;2023-03-19T05:26:22;100213.56;;;11.55;100.00
44457;BME280;30159;49.316;8.558;2023-03-19T05:28:50;100214.66;;;11.54;99.15
44457;BME280;30159;49.316;8.558;2023-03-19T05:31:16;100217.94;;;11.51;99.38
44457;BME280;30159;49.316;8.558;2023-03-19T05:33:44;100220.34;;;11.53;99.18
44457;BME280;30159;49.316;8.558;2023-03-19T05:36:11;100209.53;;;11.53;99.47
44457;BME280;30159;49.316;8.558;2023-03-19T05:38:37;100215.75;;;11.53;99.94
44457;BME280;30159;49.316;8.558;2023-03-19T05:41:05;100218.44;;;11.53;99.97
44457;BME280;30159;49.316;8.558;2023-03-19T05:43:32;100223.06;;;11.53;100.00
44457;BME280;30159;49.316;8.558;2023-03-19T05:45:59;100239.53;;;11.51;100.00
44457;BME280;30159;49.316;8.558;2023-03-19T05:48:26;100244.13;;;11.51;100.00
44457;BME280;30159;49.316;8.558;2023-03-19T05:50:54;100199.59;;;11.29;100.00
44457;BME280;30159;49.316;8.558;2023-03-19T05:53:21;100245.47;;;11.53;100.00
44457;BME280;30159;49.316;8.558;2023-03-19T05:55:48;100223.63;;;11.50;100.00
44457;BME280;30159;49.316;8.558;2023-03-19T05:58:15;100243.50;;;11.59;100.00
44457;BME280;30159;49.316;8.558;2023-03-19T06:00:42;100228.28;;;11.44;100.00
44457;BME280;30159;49.316;8.558;2023-03-19T06:03:08;100156.00;;;10.93;100.00
44457;BME280;30159;49.316;8.558;2023-03-19T06:05:35;100249.72;;;11.59;100.00
44457;BME280;30159;49.316;8.558;2023-03-19T06:08:03;100254.53;;;11.63;100.00
44457;BME280;30159;49.316;8.558;2023-03-19T06:10:30;100255.31;;;11.63;100.00
44457;BME280;30159;49.316;8.558;2023-03-19T06:12:57;100260.44;;;11.65;99.23
44457;BME280;30159;49.316;8.558;2023-03-19T06:15:23;100262.34;;;11.64;99.06
44457;BME280;30159;49.316;8.558;2023-03-19T06:17:50;100269.00;;;11.72;98.33
44457;BME280;30159;49.316;8.558;2023-03-19T06:20:17;100256.75;;;11.79;98.49
44457;BME280;30159;49.316;8.558;2023-03-19T06:22:44;100263.44;;;11.87;98.17
44457;BME280;30159;49.316;8.558;2023-03-19T06:25:12;100260.16;;;11.90;97.68
44457;BME280;30159;49.316;8.558;2023-03-19T06:27:38;100262.72;;;12.00;97.72
44457;BME280;30159;49.316;8.558;2023-03-19T06:30:06;100260.03;;;12.00;97.15
44457;BME280;30159;49.316;8.558;2023-03-19T06:32:34;100265.19;;;12.16;96.35
44457;BME280;30159;49.316;8.558;2023-03-19T06:35:01;100268.13;;;12.19;95.79
44457;BME280;30159;49.316;8.558;2023-03-19T06:37:27;100104.94;;;11.21;95.27
44457;BME280;30159;49.316;8.558;2023-03-19T06:39:54;100269.06;;;12.29;93.77
44457;BME280;30159;49.316;8.558;2023-03-19T06:42:22;100265.91;;;12.40;94.14
44457;BME280;30159;49.316;8.558;2023-03-19T06:44:49;100270.34;;;12.50;93.60
44457;BME280;30159;49.316;8.558;2023-03-19T06:47:15;100263.69;;;12.61;92.83
44457;BME280;30159;49.316;8.558;2023-03-19T06:49:42;100264.00;;;12.74;91.83
44457;BME280;30159;49.316;8.558;2023-03-19T06:52:09;100273.34;;;12.81;91.63
44457;BME280;30159;49.316;8.558;2023-03-19T06:54:35;100267.75;;;12.92;90.54
44457;BME280;30159;49.316;8.558;2023-03-19T06:57:02;100236.53;;;12.67;89.48
44457;BME280;30159;49.316;8.558;2023-03-19T06:59:30;100269.66;;;12.91;88.10
44457;BME280;30159;49.316;8.558;2023-03-19T07:01:56;100285.00;;;12.96;88.29
44457;BME280;30159;49.316;8.558;2023-03-19T07:04:23;100285.50;;;12.98;88.13
44457;BME280;30159;49.316;8.558;2023-03-19T07:06:50;100290.56;;;13.18;88.13
44457;BME280;30159;49.316;8.558;2023-03-19T07:09:16;100295.50;;;13.30;89.27
44457;BME280;30159;49.316;8.558;2023-03-19T07:11:43;100300.25;;;13.38;88.42
44457;BME280;30159;49.316;8.558;2023-03-19T07:14:10;100303.53;;;13.35;87.05
44457;BME280;30159;49.316;8.558;2023-03-19T07:16:38;100307.16;;;13.44;87.39
44457;BME280;30159;49.316;8.558;2023-03-19T07:19:04;100310.88;;;13.48;85.56
44457;BME280;30159;49.316;8.558;2023-03-19T07:21:31;100310.97;;;13.57;85.81
44457;BME280;30159;49.316;8.558;2023-03-19T07:23:58;100297.72;;;13.69;85.47
44457;BME280;30159;49.316;8.558;2023-03-19T07:26:24;100304.03;;;13.93;83.68
44457;BME280;30159;49.316;8.558;2023-03-19T07:28:51;100307.66;;;13.88;83.78
44457;BME280;30159;49.316;8.558;2023-03-19T07:31:18;100298.91;;;13.91;84.03
44457;BME280;30159;49.316;8.558;2023-03-19T07:33:46;100301.41;;;14.01;82.18
44457;BME280;30159;49.316;8.558;2023-03-19T07:36:13;100287.59;;;14.11;81.80
44457;BME280;30159;49.316;8.558;2023-03-19T07:38:39;100302.69;;;14.40;82.59
44457;BME280;30159;49.316;8.558;2023-03-19T07:41:06;100306.75;;;14.51;80.67
44457;BME280;30159;49.316;8.558;2023-03-19T07:43:33;100308.09;;;14.77;81.57
44457;BME280;30159;49.316;8.558;2023-03-19T07:45:59;100317.19;;;15.03;78.74
44457;BME280;30159;49.316;8.558;2023-03-19T07:48:27;100308.31;;;15.11;78.69
44457;BME280;30159;49.316;8.558;2023-03-19T07:50:55;100315.22;;;15.26;78.72
44457;BME280;30159;49.316;8.558;2023-03-19T07:53:21;100321.38;;;15.41;79.16
44457;BME280;30159;49.316;8.558;2023-03-19T07:55:48;100318.28;;;15.65;78.55
44457;BME280;30159;49.316;8.558;2023-03-19T07:58:15;100310.34;;;15.86;76.96
44457;BME280;30159;49.316;8.558;2023-03-19T08:00:42;100307.66;;;16.03;76.41
44457;BME280;30159;49.316;8.558;2023-03-19T08:03:10;100309.44;;;16.16;76.94
44457;BME280;30159;49.316;8.558;2023-03-19T08:05:37;100301.41;;;16.20;74.94
44457;BME280;30159;49.316;8.558;2023-03-19T08:08:05;100314.72;;;16.30;72.87
44457;BME280;30159;49.316;8.558;2023-03-19T08:10:32;100310.41;;;16.20;73.91
44457;BME280;30159;49.316;8.558;2023-03-19T08:12:59;100297.44;;;16.09;72.67
44457;BME280;30159;49.316;8.558;2023-03-19T08:15:25;100321.78;;;16.31;70.87
44457;BME280;30159;49.316;8.558;2023-03-19T08:17:56;100259.56;;;15.55;72.23
44457;BME280;30159;49.316;8.558;2023-03-19T08:20:23;100318.28;;;15.65;71.91
44457;BME280;30159;49.316;8.558;2023-03-19T08:22:50;100306.06;;;15.53;73.66
44457;BME280;30159;49.316;8.558;2023-03-19T08:25:18;100309.56;;;15.94;75.09
44457;BME280;30159;49.316;8.558;2023-03-19T08:27:45;100306.88;;;16.29;72.90
44457;BME280;30159;49.316;8.558;2023-03-19T08:30:12;100312.97;;;16.69;72.25
44457;BME280;30159;49.316;8.558;2023-03-19T08:32:39;100178.66;;;16.21;70.12
44457;BME280;30159;49.316;8.558;2023-03-19T08:35:06;100310.13;;;17.30;67.29
44457;BME280;30159;49.316;8.558;2023-03-19T08:37:33;100312.56;;;17.53;67.13
44457;BME280;30159;49.316;8.558;2023-03-19T08:40:00;100312.09;;;17.80;66.49
44457;BME280;30159;49.316;8.558;2023-03-19T08:42:28;100310.44;;;17.97;66.33
44457;BME280;30159;49.316;8.558;2023-03-19T08:44:54;100305.81;;;18.18;65.25
44457;BME280;30159;49.316;8.558;2023-03-19T08:47:21;100303.34;;;18.25;64.05
44457;BME280;30159;49.316;8.558;2023-03-19T08:49:49;100310.69;;;18.46;64.64
44457;BME280;30159;49.316;8.558;2023-03-19T08:52:16;100316.22;;;18.58;63.86
44457;BME280;30159;49.316;8.558;2023-03-19T08:54:42;100310.22;;;18.86;63.44
44457;BME280;30159;49.316;8.558;2023-03-19T08:57:09;100318.31;;;18.94;61.65
44457;BME280;30159;49.316;8.558;2023-03-19T08:59:37;100319.44;;;18.81;60.74
44457;BME280;30159;49.316;8.558;2023-03-19T09:02:03;100315.09;;;18.59;61.34
44457;BME280;30159;49.316;8.558;2023-03-19T09:04:30;100319.63;;;18.55;60.21
44457;BME280;30159;49.316;8.558;2023-03-19T09:07:00;100318.47;;;18.23;60.70
44457;BME280;30159;49.316;8.558;2023-03-19T09:09:27;100315.59;;;17.89;61.72
44457;BME280;30159;49.316;8.558;2023-03-19T09:11:54;100317.88;;;17.87;63.03
44457;BME280;30159;49.316;8.558;2023-03-19T09:14:20;100310.44;;;17.97;63.37
44457;BME280;30159;49.316;8.558;2023-03-19T09:16:48;100307.22;;;17.95;61.77
44457;BME280;30159;49.316;8.558;2023-03-19T09:19:15;100318.53;;;17.84;62.46
44457;BME280;30159;49.316;8.558;2023-03-19T09:21:42;100324.34;;;17.74;63.73
44457;BME280;30159;49.316;8.558;2023-03-19T09:24:09;100327.88;;;17.83;60.72
44457;BME280;30159;49.316;8.558;2023-03-19T09:26:36;100298.81;;;17.79;61.31
44457;BME280;30159;49.316;8.558;2023-03-19T09:29:02;100324.28;;;17.92;61.40
44457;BME280;30159;49.316;8.558;2023-03-19T09:31:29;100335.88;;;18.09;61.18
44457;BME280;30159;49.316;8.558;2023-03-19T09:33:57;100321.41;;;17.88;61.40
44457;BME280;30159;49.316;8.558;2023-03-19T09:36:24;100320.59;;;17.58;60.55
44457;BME280;30159;49.316;8.558;2023-03-19T09:38:50;100327.34;;;17.52;62.85
44457;BME280;30159;49.316;8.558;2023-03-19T09:41:23;100324.50;;;17.39;60.60
44457;BME280;30159;49.316;8.558;2023-03-19T09:43:58;100327.72;;;17.41;60.76
44457;BME280;30159;49.316;8.558;2023-03-19T09:46:32;100321.66;;;17.27;61.98
44457;BME280;30159;49.316;8.558;2023-03-19T09:49:08;100331.50;;;17.58;60.97
44457;BME280;30159;49.316;8.558;2023-03-19T09:51:42;100338.00;;;17.74;60.72
44457;BME280;30159;49.316;8.558;2023-03-19T09:54:21;100339.38;;;17.80;61.16
44457;BME280;30159;49.316;8.558;2023-03-19T09:56:51;100334.13;;;17.84;60.55
44457;BME280;30159;49.316;8.558;2023-03-19T09:59:19;100334.00;;;18.22;59.67
44457;BME280;30159;49.316;8.558;2023-03-19T10:01:52;100324.44;;;18.58;59.89
44457;BME280;30159;49.316;8.558;2023-03-19T10:04:36;100335.72;;;18.69;58.77
44457;BME280;30159;49.316;8.558;2023-03-19T10:07:09;100325.47;;;18.87;59.21
44457;BME280;30159;49.316;8.558;2023-03-19T10:09:46;100324.91;;;18.60;59.04
44457;BME280;30159;49.316;8.558;2023-03-19T10:12:25;100321.69;;;18.58;59.39
44457;BME280;30159;49.316;8.558;2023-03-19T10:15:13;100320.59;;;18.71;58.90
44457;BME280;30159;49.316;8.558;2023-03-19T10:17:46;100304.78;;;19.10;59.71
44457;BME280;30159;49.316;8.558;2023-03-19T10:20:27;100292.16;;;18.72;58.05
44457;BME280;30159;49.316;8.558;2023-03-19T10:23:00;100313.19;;;18.93;59.77
44457;BME280;30159;49.316;8.558;2023-03-19T10:25:30;100302.03;;;18.86;58.64
44457;BME280;30159;49.316;8.558;2023-03-19T10:28:00;100310.22;;;18.65;59.78
44457;BME280;30159;49.316;8.558;2023-03-19T10:30:33;100293.34;;;18.84;59.45
44457;BME280;30159;49.316;8.558;2023-03-19T10:33:06;100301.75;;;18.79;58.66
44457;BME280;30159;49.316;8.558;2023-03-19T10:35:42;100290.22;;;18.73;59.29
44457;BME280;30159;49.316;8.558;2023-03-19T10:38:18;100273.38;;;18.50;59.20
44457;BME280;30159;49.316;8.558;2023-03-19T10:40:55;100178.53;;;17.93;60.02
44457;BME280;30159;49.316;8.558;2023-03-19T10:43:24;100292.03;;;18.48;58.54
44457;BME280;30159;49.316;8.558;2023-03-19T10:45:52;100291.75;;;18.07;58.91
44457;BME280;30159;49.316;8.558;2023-03-19T10:48:24;100284.13;;;17.92;59.60
44457;BME280;30159;49.316;8.558;2023-03-19T10:50:55;100292.47;;;17.96;59.01
44457;BME280;30159;49.316;8.558;2023-03-19T10:53:29;100296.47;;;18.19;59.72
44457;BME280;30159;49.316;8.558;2023-03-19T10:56:00;100301.16;;;18.52;58.64
44457;BME280;30159;49.316;8.558;2023-03-19T10:58:28;100291.50;;;18.54;58.18
44457;BME280;30159;49.316;8.558;2023-03-19T11:00:56;100281.13;;;18.48;57.66
44457;BME280;30159;49.316;8.558;2023-03-19T11:03:34;100256.63;;;18.39;56.07
44457;BME280;30159;49.316;8.558;2023-03-19T11:06:06;100293.66;;;18.49;56.39
44457;BME280;30159;49.316;8.558;2023-03-19T11:08:41;100302.56;;;18.58;57.70
44457;BME280;30159;49.316;8.558;2023-03-19T11:11:22;100291.84;;;18.53;57.53
44457;BME280;30159;49.316;8.558;2023-03-19T11:13:48;100282.56;;;18.66;58.40
44457;BME280;30159;49.316;8.558;2023-03-19T11:16:15;100291.94;;;18.44;57.36
44457;BME280;30159;49.316;8.558;2023-03-19T11:18:46;100286.19;;;18.58;58.16
44457;BME280;30159;49.316;8.558;2023-03-19T11:21:23;100293.69;;;18.82;57.69
44457;BME280;30159;49.316;8.558;2023-03-19T11:23:51;100292.44;;;18.92;57.09
44457;BME280;30159;49.316;8.558;2023-03-19T11:26:19;100279.16;;;18.69;57.72
44457;BME280;30159;49.316;8.558;2023-03-19T11:28:49;100288.00;;;19.00;57.18
44457;BME280;30159;49.316;8.558;2023-03-19T11:31:20;100285.19;;;19.08;57.23
44457;BME280;30159;49.316;8.558;2023-03-19T11:33:57;100288.63;;;19.05;57.75
44457;BME280;30159;49.316;8.558;2023-03-19T11:36:35;100283.63;;;19.20;57.48
44457;BME280;30159;49.316;8.558;2023-03-19T11:39:20;100282.50;;;19.33;57.54
44457;BME280;30159;49.316;8.558;2023-03-19T11:42:21;100279.75;;;19.57;57.63
44457;BME280;30159;49.316;8.558;2023-03-19T11:45:01;100284.53;;;19.85;56.32
44457;BME280;30159;49.316;8.558;2023-03-19T11:47:33;100284.09;;;19.95;56.95
44457;BME280;30159;49.316;8.558;2023-03-19T11:50:15;100280.41;;;19.67;56.58
44457;BME280;30159;49.316;8.558;2023-03-19T11:53:07;100246.47;;;19.31;56.29
44457;BME280;30159;49.316;8.558;2023-03-19T11:55:40;100284.88;;;19.34;56.73
44457;BME280;30159;49.316;8.558;2023-03-19T11:58:24;100284.72;;;18.94;56.15
44457;BME280;30159;49.316;8.558;2023-03-19T12:00:56;100279.88;;;18.79;57.97
44457;BME280;30159;49.316;8.558;2023-03-19T12:03:37;100275.50;;;18.99;58.25
44457;BME280;30159;49.316;8.558;2023-03-19T12:06:14;100273.84;;;19.19;57.98
44457;BME280;30159;49.316;8.558;2023-03-19T12:08:49;100273.50;;;19.45;57.48
44457;BME280;30159;49.316;8.558;2023-03-19T12:11:23;100277.00;;;19.57;56.03
44457;BME280;30159;49.316;8.558;2023-03-19T12:14:07;100266.97;;;19.62;57.05
44457;BME280;30159;49.316;8.558;2023-03-19T12:16:48;100276.22;;;19.57;57.66
44457;BME280;30159;49.316;8.558;2023-03-19T12:19:36;100277.72;;;19.79;57.65
44457;BME280;30159;49.316;8.558;2023-03-19T12:22:12;100170.53;;;19.77;57.59
44457;BME280;30159;49.316;8.558;2023-03-19T12:24:54;100252.88;;;20.69;56.12
44457;BME280;30159;49.316;8.558;2023-03-19T12:27:29;100175.94;;;19.89;55.40
44457;BME280;30159;49.316;8.558;2023-03-19T12:30:01;100281.81;;;20.66;55.61
44457;BME280;30159;49.316;8.558;2023-03-19T12:32:39;100277.22;;;20.70;54.40
44457;BME280;30159;49.316;8.558;2023-03-19T12:35:12;100280.59;;;20.51;55.12
44457;BME280;30159;49.316;8.558;2023-03-19T12:37:45;100271.94;;;20.09;55.35
44457;BME280;30159;49.316;8.558;2023-03-19T12:40:25;100277.69;;;19.54;57.15
44457;BME280;30159;49.316;8.558;2023-03-19T12:42:56;100160.19;;;18.14;57.05
44457;BME280;30159;49.316;8.558;2023-03-19T12:45:28;100282.00;;;18.73;58.59
44457;BME280;30159;49.316;8.558;2023-03-19T12:48:01;100279.16;;;18.69;59.49
44457;BME280;30159;49.316;8.558;2023-03-19T12:50:33;100273.72;;;18.69;59.28
44457;BME280;30159;49.316;8.558;2023-03-19T12:53:04;100272.13;;;18.47;60.15
44457;BME280;30159;49.316;8.558;2023-03-19T12:55:39;100179.41;;;18.18;60.35